Time;durP1;ratioP1;P1;durP2;ratioP2;P2;SDS_P1;SDS_P2;PMS_P1;PMS_P2;Temp;Humidity;BMP_temperature;BMP_pressure;BME280_temperature;BME280_humidity;BME280_pressure;Samples;Min_cycle;Max_cycle;Signal;HPM_P1;HPM_P2
2022/01/26 00:07:06;;;;;;;43.42;17.95;;;;;;;3.85;100.00;102998.47;10039268;28;20075;-72
2022/01/26 00:12:03;;;;;;;48.80;19.58;;;;;;;3.83;100.00;102993.31;10025958;29;20076;-72
2022/01/26 00:17:01;;;;;;;45.50;19.10;;;;;;;3.68;100.00;102990.03;10044745;28;20574;-70
2022/01/26 00:21:57;;;;;;;45.95;19.00;;;;;;;3.75;100.00;102990.84;10022239;28;20076;-70
2022/01/26 00:42:13;;;;;;;38.83;15.25;;;;;;;3.81;100.00;102979.16;10034385;29;20052;-71
2022/01/26 00:47:11;;;;;;;47.38;17.27;;;;;;;3.78;100.00;102966.88;10028842;29;20059;-70
2022/01/26 00:52:12;;;;;;;44.33;17.05;;;;;;;3.73;100.00;102982.09;10020154;29;20075;-70
2022/01/26 00:57:08;;;;;;;38.70;15.70;;;;;;;3.75;100.00;102963.78;10023854;29;20103;-71
2022/01/26 01:02:05;;;;;;;39.20;16.15;;;;;;;3.76;100.00;102965.41;10022917;29;20102;-71
2022/01/26 01:07:04;;;;;;;45.38;17.23;;;;;;;3.79;100.00;102965.00;10039539;29;20510;-71
2022/01/26 01:12:03;;;;;;;43.25;16.77;;;;;;;3.66;100.00;102957.78;10022368;28;20144;-71
2022/01/26 01:17:03;;;;;;;41.75;16.10;;;;;;;3.71;100.00;102949.88;10039461;29;20071;-71
2022/01/26 01:22:20;;;;;;;39.40;15.23;;;;;;;3.70;100.00;102960.91;10027705;29;20052;-71
2022/01/26 01:28:12;;;;;;;43.85;16.80;;;;;;;3.67;100.00;102958.63;10044699;29;20074;-71
2022/01/26 01:32:39;;;;;;;45.53;17.45;;;;;;;3.53;100.00;102958.69;10018362;28;20414;-71
2022/01/26 01:37:36;;;;;;;36.70;15.70;;;;;;;3.54;100.00;102941.41;10029339;29;20047;-71
2022/01/26 01:42:32;;;;;;;33.33;14.35;;;;;;;3.44;100.00;102946.47;10033501;29;20056;-71
2022/01/26 01:47:29;;;;;;;42.95;17.38;;;;;;;3.54;100.00;102925.16;10024239;28;20055;-71
2022/01/26 01:52:27;;;;;;;43.45;17.77;;;;;;;3.54;100.00;102927.88;10026028;28;20079;-71
2022/01/26 01:57:25;;;;;;;47.13;16.27;;;;;;;3.46;100.00;102922.75;10040532;28;20747;-71
2022/01/26 02:02:22;;;;;;;44.60;17.95;;;;;;;3.48;100.00;102914.38;10034405;28;20082;-72
2022/01/26 02:07:19;;;;;;;45.47;15.73;;;;;;;3.50;100.00;102891.47;10019517;29;20135;-71
2022/01/26 02:12:18;;;;;;;49.72;17.92;;;;;;;3.50;100.00;102891.47;10038691;29;20155;-70
2022/01/26 02:17:59;;;;;;;44.25;16.92;;;;;;;3.44;100.00;102892.38;10046945;28;20142;-70
2022/01/26 03:04:53;;;;;;;45.10;17.90;;;;;;;3.47;100.00;102881.09;10030240;28;20080;-71
2022/01/26 03:10:01;;;;;;;37.15;13.90;;;;;;;3.39;100.00;102862.44;10031763;28;20102;-70
2022/01/26 03:15:06;;;;;;;46.47;18.95;;;;;;;3.39;100.00;102859.75;10027191;29;20480;-71
2022/01/26 03:20:09;;;;;;;52.25;20.85;;;;;;;3.43;100.00;102835.78;10039901;29;20482;-69
2022/01/26 03:35:29;;;;;;;56.88;19.70;;;;;;;3.35;100.00;102828.75;10039633;28;20079;-72
2022/01/26 03:40:32;;;;;;;55.08;21.98;;;;;;;3.27;100.00;102826.31;10028491;28;20086;-72
2022/01/26 03:45:28;;;;;;;;;;;;;;;3.31;100.00;102832.94;10030311;28;20528;-69
2022/01/26 03:50:25;;;;;;;54.38;21.23;;;;;;;3.38;100.00;102817.50;10033917;28;19951;-69
2022/01/26 03:55:22;;;;;;;52.35;21.80;;;;;;;3.44;100.00;102822.06;10036686;28;20075;-70
2022/01/26 04:00:18;;;;;;;60.90;21.17;;;;;;;3.45;100.00;102829.09;10004326;29;20123;-69
2022/01/26 04:05:15;;;;;;;56.67;22.55;;;;;;;3.40;100.00;102815.41;10038094;28;20105;-72
2022/01/26 04:10:23;;;;;;;50.53;18.98;;;;;;;3.40;100.00;102847.88;10036706;29;20558;-72
2022/01/26 04:15:28;;;;;;;52.30;21.83;;;;;;;3.43;100.00;102839.31;10014584;29;20127;-71
2022/01/26 04:20:28;;;;;;;50.45;19.42;;;;;;;3.43;100.00;102839.31;10016964;28;20059;-71
2022/01/26 04:25:26;;;;;;;55.10;21.55;;;;;;;3.25;100.00;102833.81;10017590;28;20075;-71
2022/01/26 04:30:23;;;;;;;46.58;20.95;;;;;;;3.33;100.00;102825.44;10021316;29;20098;-71
2022/01/26 04:35:19;;;;;;;44.85;18.67;;;;;;;3.40;100.00;102823.53;10021417;28;20127;-73
2022/01/26 04:40:17;;;;;;;52.38;21.83;;;;;;;3.38;100.00;102806.69;10026148;29;20126;-73
2022/01/26 04:45:14;;;;;;;53.75;20.63;;;;;;;3.28;100.00;102815.28;10020130;29;20414;-70
2022/01/26 04:50:11;;;;;;;50.45;18.05;;;;;;;3.43;100.00;102814.97;10029327;28;20060;-69
2022/01/26 04:55:08;;;;;;;34.75;15.82;;;;;;;3.45;100.00;102818.28;10015409;28;20419;-69
2022/01/26 05:00:08;;;;;;;38.85;16.73;;;;;;;3.53;100.00;102804.50;10012857;28;20056;-70
2022/01/26 05:05:04;;;;;;;41.25;16.35;;;;;;;3.47;100.00;102789.16;10011759;28;20155;-69
2022/01/26 05:10:03;;;;;;;40.70;16.00;;;;;;;3.39;100.00;102781.31;10020614;29;20138;-70
2022/01/26 05:14:59;;;;;;;38.20;15.82;;;;;;;3.40;100.00;102774.84;10022298;29;20055;-71
2022/01/26 05:19:59;;;;;;;35.70;15.10;;;;;;;3.41;100.00;102779.19;10031867;29;20459;-71
2022/01/26 05:24:55;;;;;;;38.10;14.27;;;;;;;3.30;100.00;102772.63;10024972;29;20126;-72
2022/01/26 05:29:52;;;;;;;39.35;15.73;;;;;;;3.21;100.00;102773.13;10011338;29;20111;-71
2022/01/26 05:34:48;;;;;;;35.55;14.60;;;;;;;3.19;100.00;102759.00;10020483;28;20044;-72
2022/01/26 05:39:45;;;;;;;37.30;15.25;;;;;;;3.30;100.00;102766.41;10043753;28;20052;-72
2022/01/26 05:44:45;;;;;;;44.25;16.48;;;;;;;3.27;100.00;102772.22;10047006;29;20082;-70
2022/01/26 05:49:42;;;;;;;36.70;14.10;;;;;;;3.33;100.00;102782.19;10070270;29;20047;-71
2022/01/26 05:54:38;;;;;;;40.20;15.15;;;;;;;3.21;100.00;102783.94;10051181;28;20078;-71
2022/01/26 05:59:35;;;;;;;42.97;15.80;;;;;;;3.25;100.00;102785.13;10078684;28;20110;-72
2022/01/26 06:04:32;;;;;;;41.95;17.10;;;;;;;3.21;100.00;102768.53;10041518;29;21423;-72
2022/01/26 06:09:28;;;;;;;38.40;15.57;;;;;;;3.20;100.00;102723.59;10027820;29;20131;-72
2022/01/26 06:14:25;;;;;;;40.40;16.02;;;;;;;3.25;100.00;102741.88;10037161;28;20131;-72
2022/01/26 06:19:21;;;;;;;39.40;15.48;;;;;;;3.14;100.00;102740.72;10032179;29;20103;-72
2022/01/26 06:24:17;;;;;;;42.13;17.05;;;;;;;3.23;100.00;102738.59;10076150;28;20584;-72
2022/01/26 06:29:14;;;;;;;36.22;14.98;;;;;;;3.14;100.00;102725.31;10063759;29;20087;-72
2022/01/26 06:34:11;;;;;;;38.70;15.82;;;;;;;3.14;100.00;102730.72;10053113;28;20520;-71
2022/01/26 06:39:07;;;;;;;43.17;16.33;;;;;;;3.05;100.00;102736.63;10027196;29;20048;-72
2022/01/26 06:44:16;;;;;;;47.78;16.15;;;;;;;3.08;100.00;102718.09;10028596;29;20072;-71
2022/01/26 06:54:19;;;;;;;39.65;16.90;;;;;;;3.09;100.00;102727.88;10046144;29;20040;-70
2022/01/26 06:59:16;;;;;;;41.28;17.13;;;;;;;3.17;100.00;102714.06;10017943;29;20052;-70
2022/01/26 07:04:12;;;;;;;44.85;17.35;;;;;;;3.15;100.00;102715.34;10026728;29;20549;-70
2022/01/26 07:09:09;;;;;;;39.60;16.60;;;;;;;3.14;100.00;102709.09;10029301;28;20044;-70
2022/01/26 07:14:09;;;;;;;40.60;15.27;;;;;;;3.02;100.00;102710.88;10042031;29;20072;-70
2022/01/26 07:24:21;;;;;;;44.28;15.88;;;;;;;3.11;100.00;102714.97;10043401;28;20514;-70
2022/01/26 07:29:21;;;;;;;49.75;18.73;;;;;;;3.10;100.00;102723.28;10024078;29;20048;-70
2022/01/26 07:34:21;;;;;;;40.58;15.35;;;;;;;3.05;100.00;102732.03;10045048;29;20079;-70
2022/01/26 07:39:28;;;;;;;40.83;16.33;;;;;;;3.12;100.00;102757.16;10020130;28;20079;-70
2022/01/26 07:44:25;;;;;;;41.50;16.13;;;;;;;3.00;100.00;102750.78;10012834;29;20082;-70
2022/01/26 07:49:22;;;;;;;41.40;17.67;;;;;;;3.04;100.00;102770.94;10041202;28;20054;-72
2022/01/26 07:54:21;;;;;;;43.00;16.63;;;;;;;2.97;100.00;102772.84;10060364;28;20450;-71
2022/01/26 07:59:17;;;;;;;36.40;15.70;;;;;;;2.88;100.00;102752.53;10035785;28;20082;-71
2022/01/26 08:04:13;;;;;;;40.08;15.73;;;;;;;2.91;100.00;102755.63;10026858;28;20040;-70
2022/01/26 08:09:11;;;;;;;46.28;19.13;;;;;;;2.95;100.00;102747.91;10027782;29;20105;-71
2022/01/26 08:14:08;;;;;;;43.83;18.52;;;;;;;2.84;100.00;102756.69;10024589;28;20071;-71
2022/01/26 08:19:04;;;;;;;45.15;16.70;;;;;;;2.77;100.00;102728.91;10028769;28;20083;-70
2022/01/26 08:24:12;;;;;;;48.97;18.92;;;;;;;2.79;100.00;102729.50;10016488;29;20115;-70
2022/01/26 08:29:39;;;;;;;39.03;17.13;;;;;;;2.67;100.00;102726.63;10014966;28;20104;-70
2022/01/26 08:34:28;;;;;;;48.55;18.67;;;;;;;2.82;100.00;102729.06;10013848;29;20518;-69
2022/01/26 08:39:24;;;;;;;49.08;18.13;;;;;;;2.71;100.00;102736.78;10028690;29;20447;-70
2022/01/26 08:44:21;;;;;;;51.63;19.33;;;;;;;2.71;100.00;102725.16;10019950;29;20091;-71
2022/01/26 08:49:18;;;;;;;51.08;20.27;;;;;;;2.71;100.00;102736.78;10010840;28;20048;-70
2022/01/26 08:54:16;;;;;;;52.03;18.60;;;;;;;2.72;100.00;102746.56;10025886;29;20059;-70
2022/01/26 08:59:14;;;;;;;48.00;21.70;;;;;;;2.89;100.00;102737.97;10029637;29;20399;-70
2022/01/26 09:04:10;;;;;;;52.25;20.10;;;;;;;2.67;100.00;102762.59;10027006;29;20058;-70
2022/01/26 09:09:08;;;;;;;45.45;18.55;;;;;;;2.82;100.00;102766.91;10024211;29;20123;-69
2022/01/26 09:14:08;;;;;;;48.03;21.20;;;;;;;2.73;100.00;102777.94;10005840;29;20044;-69
2022/01/26 09:19:24;;;;;;;51.58;21.33;;;;;;;2.71;100.00;102769.22;10032572;28;20131;-68
2022/01/26 09:24:21;;;;;;;47.88;21.63;;;;;;;2.77;100.00;102755.91;10011728;29;20500;-69
2022/01/26 09:29:17;;;;;;;53.72;22.80;;;;;;;2.68;100.00;102752.63;10008486;29;20102;-68
2022/01/26 09:34:19;;;;;;;50.83;20.65;;;;;;;2.61;100.00;102758.03;10014844;29;20047;-68
2022/01/26 09:39:18;;;;;;;65.70;22.70;;;;;;;2.64;100.00;102762.19;10011023;29;20083;-69
2022/01/26 09:44:16;;;;;;;56.65;22.42;;;;;;;2.81;100.00;102760.66;10015594;29;20071;-68
2022/01/26 09:49:16;;;;;;;59.05;22.30;;;;;;;2.83;100.00;102755.03;10021081;28;20044;-68
2022/01/26 09:54:16;;;;;;;55.00;22.20;;;;;;;2.77;100.00;102750.50;10043600;28;20583;-69
2022/01/26 09:59:15;;;;;;;54.75;21.75;;;;;;;2.92;100.00;102742.94;10008263;29;20052;-69
2022/01/26 10:04:35;;;;;;;56.58;22.70;;;;;;;2.99;100.00;102743.72;10018410;29;20643;-68
2022/01/26 10:19:58;;;;;;;61.63;24.30;;;;;;;2.95;100.00;102742.50;10038376;28;20103;-69
2022/01/26 10:25:24;;;;;;;57.47;22.58;;;;;;;2.86;100.00;102735.72;10038408;29;20524;-68
2022/01/26 10:30:33;;;;;;;52.45;20.30;;;;;;;2.77;100.00;102751.34;9968887;29;20044;-69
2022/01/26 10:35:30;;;;;;;47.88;19.58;;;;;;;2.76;100.00;102771.25;10027925;28;20095;-68
2022/01/26 10:40:28;;;;;;;54.70;22.90;;;;;;;2.77;100.00;102772.13;10010645;29;20052;-68
2022/01/26 10:46:04;;;;;;;62.47;22.83;;;;;;;2.74;100.00;102759.88;10028859;28;20114;-69
2022/01/26 10:56:12;;;;;;;56.05;22.08;;;;;;;2.52;100.00;102764.72;10024210;28;20836;-69
2022/01/26 11:01:08;;;;;;;46.80;17.50;;;;;;;2.51;100.00;102752.28;10024302;29;20142;-68
2022/01/26 11:06:06;;;;;;;56.45;20.80;;;;;;;2.45;100.00;102759.34;10040882;28;20043;-68
2022/01/26 11:11:03;;;;;;;46.90;15.35;;;;;;;2.23;100.00;102764.22;10014338;29;20093;-68
2022/01/26 11:16:11;;;;;;;60.58;21.75;;;;;;;2.30;100.00;102734.50;10019827;29;20071;-68
2022/01/26 11:21:07;;;;;;;56.58;20.35;;;;;;;2.34;100.00;102735.72;10030097;29;20091;-68
2022/01/26 11:26:04;;;;;;;56.53;19.35;;;;;;;2.30;100.00;102708.31;10024944;29;20048;-68
2022/01/26 11:31:05;;;;;;;61.30;20.23;;;;;;;2.31;100.00;102693.78;10024130;28;20139;-69
2022/01/26 11:36:02;;;;;;;63.83;23.40;;;;;;;2.48;100.00;102666.28;10029404;28;20051;-68
2022/01/26 11:46:17;;;;;;;61.83;24.23;;;;;;;2.37;100.00;102648.06;10037359;29;20052;-69
2022/01/26 11:51:14;;;;;;;69.25;23.77;;;;;;;2.36;100.00;102657.22;10014971;28;20048;-69
2022/01/26 11:56:13;;;;;;;62.63;22.95;;;;;;;2.45;100.00;102645.94;10036595;28;20126;-69
2022/01/26 12:01:27;;;;;;;65.22;23.13;;;;;;;2.39;100.00;102637.88;10026213;28;20100;-70
2022/01/26 12:06:40;;;;;;;61.20;23.13;;;;;;;2.30;100.00;102632.75;10014193;29;20135;-68
2022/01/26 12:11:37;;;;;;;67.80;23.75;;;;;;;2.28;100.00;102618.63;10018131;29;20052;-68
2022/01/26 12:16:45;;;;;;;63.85;22.92;;;;;;;2.30;100.00;102621.94;10029555;29;20071;-70
2022/01/26 12:32:34;;;;;;;67.88;25.70;;;;;;;2.34;100.00;102611.53;10050092;29;20058;-70
2022/01/26 12:37:48;;;;;;;57.22;21.23;;;;;;;2.34;100.00;102610.72;10051422;28;20051;-69
2022/01/26 12:47:45;;;;;;;76.50;23.02;;;;;;;2.30;100.00;102594.94;10036393;28;20083;-68
2022/01/26 12:52:50;;;;;;;73.88;24.52;;;;;;;2.26;100.00;102604.53;10037349;29;20118;-69
2022/01/26 12:57:46;;;;;;;67.07;22.50;;;;;;;2.29;100.00;102593.28;10036857;28;20107;-68
2022/01/26 13:02:43;;;;;;;79.88;25.58;;;;;;;2.24;100.00;102579.59;10035517;29;20129;-69
2022/01/26 13:07:40;;;;;;;76.38;24.83;;;;;;;2.17;100.00;102578.81;10036833;28;20039;-69
2022/01/26 13:12:36;;;;;;;78.78;25.38;;;;;;;2.29;100.00;102571.69;10040556;28;20067;-69
2022/01/26 13:17:42;;;;;;;75.28;25.77;;;;;;;2.41;100.00;102574.53;10048839;28;20573;-68
2022/01/26 13:28:12;;;;;;;80.63;24.40;;;;;;;2.38;100.00;102558.75;10035101;29;20048;-69
2022/01/26 13:53:59;;;;;;;62.53;22.23;;;;;;;2.50;100.00;102553.50;10029283;28;20036;-69
2022/01/26 13:58:58;;;;;;;74.75;24.98;;;;;;;2.43;100.00;102550.84;10037105;28;20158;-70
2022/01/26 14:04:01;;;;;;;72.13;25.23;;;;;;;2.54;100.00;102541.22;10024411;29;20834;-69
2022/01/26 14:08:58;;;;;;;76.78;25.98;;;;;;;2.55;100.00;102540.16;10013978;29;20184;-69
2022/01/26 14:13:57;;;;;;;78.10;25.80;;;;;;;2.51;100.00;102538.97;10036128;28;20111;-69
2022/01/26 14:29:19;;;;;;;72.93;26.35;;;;;;;2.57;100.00;102505.66;10018449;29;20522;-69
2022/01/26 14:40:01;;;;;;;83.95;27.88;;;;;;;2.57;100.00;102511.06;10037659;28;20043;-68
2022/01/26 15:32:24;;;;;;;72.68;25.55;;;;;;;2.88;100.00;102479.63;10042673;28;20047;-69
2022/01/26 16:07:54;;;;;;;75.50;27.38;;;;;;;3.03;100.00;102450.38;10016966;29;20126;-69
2022/01/26 16:52:39;;;;;;;77.40;30.08;;;;;;;3.05;100.00;102423.13;10036969;28;20123;-69
2022/01/26 18:50:21;;;;;;;98.22;33.92;;;;;;;3.55;100.00;102356.13;10021097;29;20060;-69
2022/01/26 18:55:17;;;;;;;97.07;30.42;;;;;;;3.54;100.00;102351.75;10028451;29;20079;-70
2022/01/26 19:00:14;;;;;;;90.32;34.70;;;;;;;3.64;100.00;102361.19;10008710;28;20136;-70
2022/01/26 19:05:12;;;;;;;97.43;31.65;;;;;;;3.71;100.00;102351.09;10034562;28;20086;-69
2022/01/26 19:10:09;;;;;;;86.90;30.83;;;;;;;3.71;100.00;102345.69;10006696;29;20138;-69
2022/01/26 19:15:11;;;;;;;90.07;31.90;;;;;;;3.70;100.00;102341.34;10012120;29;20516;-69
2022/01/26 19:20:20;;;;;;;79.65;27.83;;;;;;;3.71;100.00;102340.28;10016226;28;20699;-69
2022/01/26 19:25:26;;;;;;;83.28;29.45;;;;;;;3.71;100.00;102335.72;10022231;28;20126;-69
2022/01/26 19:51:24;;;;;;;76.45;29.88;;;;;;;3.70;100.00;102327.81;10022393;28;20078;-68
2022/01/26 19:56:20;;;;;;;77.38;28.33;;;;;;;3.72;100.00;102312.19;10033471;28;20072;-69
2022/01/26 20:01:17;;;;;;;82.10;29.15;;;;;;;3.70;100.00;102322.41;10013187;29;20067;-68
2022/01/26 20:06:13;;;;;;;82.45;30.33;;;;;;;3.73;100.00;102313.81;10039899;28;20050;-68
2022/01/26 20:11:21;;;;;;;76.40;31.63;;;;;;;3.67;100.00;102317.47;10024150;29;20098;-69
2022/01/26 20:16:19;;;;;;;88.95;29.35;;;;;;;3.71;100.00;102310.53;10029362;29;20040;-69
2022/01/26 20:21:15;;;;;;;74.53;29.00;;;;;;;3.82;100.00;102314.31;10021568;28;20128;-69
2022/01/26 20:26:12;;;;;;;67.70;26.25;;;;;;;3.85;100.00;102303.81;10015276;29;20461;-68
2022/01/26 20:31:20;;;;;;;68.45;24.55;;;;;;;3.80;100.00;102306.41;10015481;29;20123;-68
2022/01/26 20:36:18;;;;;;;73.55;26.50;;;;;;;3.84;100.00;102318.44;10038930;28;20419;-69
2022/01/26 20:41:14;;;;;;;56.05;23.17;;;;;;;3.79;100.00;102312.91;10045646;28;20048;-68
2022/01/26 20:46:12;;;;;;;65.68;24.42;;;;;;;3.80;100.00;102301.81;10005503;28;20051;-69
2022/01/26 20:51:08;;;;;;;67.82;24.45;;;;;;;3.76;100.00;102283.59;10012197;29;20048;-69
2022/01/26 20:56:07;;;;;;;50.70;19.05;;;;;;;3.64;100.00;102280.03;10019333;28;20128;-70
2022/01/26 21:01:04;;;;;;;52.85;21.50;;;;;;;3.61;100.00;102275.94;10021470;28;20422;-71
2022/01/26 21:06:02;;;;;;;52.75;20.52;;;;;;;3.59;100.00;102273.44;10008263;29;20519;-65
2022/01/26 21:10:59;;;;;;;52.80;21.38;;;;;;;3.58;100.00;102276.41;10014580;28;20043;-66
2022/01/26 21:16:00;;;;;;;52.92;19.52;;;;;;;3.56;100.00;102265.00;10011513;28;20074;-66
2022/01/26 21:20:59;;;;;;;47.85;19.80;;;;;;;3.58;100.00;102277.22;10007581;28;20048;-66
2022/01/26 21:25:57;;;;;;;55.25;24.30;;;;;;;3.56;100.00;102271.22;10007981;28;20133;-66
2022/01/26 21:30:53;;;;;;;61.53;24.42;;;;;;;3.62;100.00;102271.34;10023478;28;20048;-67
2022/01/26 21:35:50;;;;;;;60.33;24.27;;;;;;;3.66;100.00;102245.47;10046115;28;20106;-67
2022/01/26 21:40:46;;;;;;;59.22;24.70;;;;;;;3.59;100.00;102249.09;10044277;29;20071;-66
2022/01/26 21:45:43;;;;;;;62.05;23.80;;;;;;;3.55;100.00;102239.84;10031284;28;20039;-66
2022/01/26 21:50:39;;;;;;;62.05;23.48;;;;;;;3.54;100.00;102248.97;10006740;29;20079;-66
2022/01/26 21:55:37;;;;;;;61.67;23.63;;;;;;;3.53;100.00;102241.94;10038780;28;20043;-66
2022/01/26 22:00:34;;;;;;;65.68;25.80;;;;;;;3.54;100.00;102237.34;10019888;28;20074;-66
2022/01/26 22:05:30;;;;;;;59.05;23.30;;;;;;;3.59;100.00;102224.75;10024310;28;20047;-66
2022/01/26 22:10:27;;;;;;;58.35;21.85;;;;;;;3.68;100.00;102210.91;10028656;29;20075;-65
2022/01/26 22:15:24;;;;;;;55.00;23.45;;;;;;;3.64;100.00;102197.00;10041640;28;20047;-66
2022/01/26 22:20:21;;;;;;;56.20;23.92;;;;;;;3.57;100.00;102194.44;10046428;28;20558;-65
2022/01/26 22:25:18;;;;;;;48.78;21.75;;;;;;;3.62;100.00;102173.97;10038371;28;20417;-65
2022/01/26 22:30:14;;;;;;;58.88;23.38;;;;;;;3.63;100.00;102159.41;10040263;28;20051;-65
2022/01/26 22:35:11;;;;;;;54.28;23.45;;;;;;;3.63;100.00;102164.81;10036519;28;20134;-63
2022/01/26 22:40:08;;;;;;;59.00;23.88;;;;;;;3.64;100.00;102155.63;10032053;29;20048;-65
2022/01/26 22:45:25;;;;;;;58.40;25.30;;;;;;;3.68;100.00;102137.88;10039728;28;20063;-66
2022/01/26 22:50:21;;;;;;;72.03;28.30;;;;;;;3.64;100.00;102117.75;10042571;28;20123;-64
2022/01/26 22:55:18;;;;;;;66.40;28.27;;;;;;;3.65;100.00;102104.00;10035333;28;20485;-65
2022/01/26 23:01:16;;;;;;;69.00;28.77;;;;;;;3.66;100.00;102094.81;10041533;28;20098;-65
2022/01/26 23:06:21;;;;;;;70.00;31.27;;;;;;;3.70;100.00;102095.19;10036135;28;20051;-65
2022/01/26 23:11:19;;;;;;;87.60;33.25;;;;;;;3.73;100.00;102089.28;10027622;28;20103;-65
2022/01/26 23:16:17;;;;;;;75.43;31.95;;;;;;;3.73;100.00;102100.09;10022832;29;20143;-66
2022/01/26 23:21:14;;;;;;;91.22;33.88;;;;;;;3.73;100.00;102068.44;10028182;29;20068;-65
2022/01/26 23:31:43;;;;;;;83.65;34.85;;;;;;;3.72;100.00;102066.00;10036696;28;20214;-63
